Time;durP1;ratioP1;P1;durP2;ratioP2;P2;SDS_P1;SDS_P2;PMS_P1;PMS_P2;Temp;Humidity;BMP_temperature;BMP_pressure;BME280_temperature;BME280_humidity;BME280_pressure;Samples;Min_cycle;Max_cycle;Signal;HPM_P1;HPM_P2
2023/05/05 00:00:07;;;;;;;6.40;6.00;;;17.30;57.10;;;;;;5021479;28;20842;-68
2023/05/05 00:02:34;;;;;;;6.45;5.95;;;17.30;58.40;;;;;;5023778;28;20473;-69
2023/05/05 00:05:00;;;;;;;6.00;5.60;;;17.30;58.40;;;;;;5021428;28;20435;-68
2023/05/05 00:07:27;;;;;;;5.90;5.50;;;17.30;57.60;;;;;;5029466;28;20431;-69
2023/05/05 00:09:55;;;;;;;6.20;5.80;;;17.40;58.30;;;;;;5010078;28;20413;-70
2023/05/05 00:12:22;;;;;;;6.00;5.60;;;17.30;57.10;;;;;;5016393;28;20885;-70
2023/05/05 00:14:49;;;;;;;6.30;5.80;;;17.30;57.20;;;;;;5021244;28;20458;-69
2023/05/05 00:17:15;;;;;;;5.90;5.50;;;17.30;56.90;;;;;;5026506;28;20441;-69
2023/05/05 00:19:42;;;;;;;6.13;5.72;;;17.30;56.50;;;;;;5009804;28;20474;-70
2023/05/05 00:22:09;;;;;;;6.53;5.93;;;17.20;57.10;;;;;;5010961;28;20481;-70
2023/05/05 00:24:36;;;;;;;6.33;5.83;;;17.20;57.80;;;;;;5011139;28;20532;-69
2023/05/05 00:27:04;;;;;;;5.90;5.50;;;17.10;58.00;;;;;;5018081;28;20446;-69
2023/05/05 00:29:31;;;;;;;6.00;5.60;;;17.10;58.10;;;;;;5021459;28;20860;-70
2023/05/05 00:31:58;;;;;;;6.60;6.20;;;17.10;58.90;;;;;;5006565;28;20524;-70
2023/05/05 00:34:24;;;;;;;6.10;5.60;;;17.00;59.20;;;;;;5005942;28;20427;-70
2023/05/05 00:36:51;;;;;;;6.60;6.00;;;17.00;59.50;;;;;;5031216;28;20449;-70
2023/05/05 00:39:18;;;;;;;6.10;5.60;;;17.00;58.30;;;;;;5022533;28;20529;-70
2023/05/05 00:41:44;;;;;;;6.75;6.15;;;17.00;59.60;;;;;;5022234;28;20427;-70
2023/05/05 00:44:12;;;;;;;6.03;5.57;;;16.90;59.60;;;;;;5007389;28;20495;-70
2023/05/05 00:46:40;;;;;;;6.00;5.60;;;16.90;59.90;;;;;;5008845;28;20431;-71
2023/05/05 00:49:07;;;;;;;6.07;5.57;;;16.80;61.00;;;;;;5021537;28;20946;-70
2023/05/05 00:51:34;;;;;;;7.18;5.47;;;16.80;61.00;;;;;;5017163;28;20425;-70
2023/05/05 00:54:01;;;;;;;5.53;5.10;;;16.70;61.10;;;;;;5023236;28;20499;-73
2023/05/05 00:56:28;;;;;;;5.80;5.30;;;16.70;60.60;;;;;;5024417;28;20411;-70
2023/05/05 00:58:55;;;;;;;6.03;5.50;;;16.70;61.60;;;;;;5024849;28;20433;-70
2023/05/05 01:01:23;;;;;;;10.23;9.73;;;16.70;60.80;;;;;;5009816;28;20435;-69
2023/05/05 01:03:50;;;;;;;6.03;5.60;;;16.60;61.40;;;;;;5013712;28;20416;-69
2023/05/05 01:06:32;;;;;;;5.70;5.30;;;16.60;61.40;;;;;;5008666;28;20458;-69
2023/05/05 01:09:08;;;;;;;6.00;5.60;;;16.50;62.00;;;;;;5022450;28;20433;-69
2023/05/05 01:11:49;;;;;;;6.30;5.90;;;16.50;62.00;;;;;;5024059;28;20426;-71
2023/05/05 01:14:19;;;;;;;6.18;5.78;;;16.50;62.30;;;;;;5023402;28;20445;-71
2023/05/05 01:16:55;;;;;;;7.68;7.07;;;16.50;63.60;;;;;;5020307;28;20437;-69
2023/05/05 01:19:47;;;;;;;5.90;4.80;;;16.40;62.40;;;;;;5017422;28;20526;-69
2023/05/05 01:22:18;;;;;;;6.03;5.63;;;16.40;63.40;;;;;;5023413;28;20538;-69
2023/05/05 01:24:56;;;;;;;6.78;6.28;;;16.40;63.60;;;;;;5022749;28;20434;-69
2023/05/05 01:27:37;;;;;;;6.78;6.28;;;16.30;64.60;;;;;;5021984;28;20538;-69
2023/05/05 01:30:15;;;;;;;6.97;6.43;;;16.30;64.00;;;;;;5022267;28;20677;-68
2023/05/05 01:32:47;;;;;;;6.10;5.60;;;16.20;64.50;;;;;;5019776;28;20507;-70
2023/05/05 01:35:20;;;;;;;6.00;5.50;;;16.20;65.40;;;;;;5020297;28;20862;-71
2023/05/05 01:37:51;;;;;;;6.05;5.55;;;16.10;66.10;;;;;;5022665;28;20850;-69
2023/05/05 01:40:27;;;;;;;5.60;5.20;;;16.10;64.60;;;;;;5023780;28;20435;-70
2023/05/05 01:42:56;;;;;;;5.30;4.90;;;16.00;66.40;;;;;;5014348;28;20433;-69
2023/05/05 01:45:26;;;;;;;5.90;5.40;;;16.00;66.90;;;;;;5021005;28;20603;-70
2023/05/05 01:47:56;;;;;;;5.70;5.30;;;16.00;67.00;;;;;;5031843;28;20900;-70
2023/05/05 01:50:24;;;;;;;6.63;6.10;;;15.90;67.80;;;;;;5012845;28;20432;-71
2023/05/05 01:52:52;;;;;;;6.32;5.90;;;15.90;68.70;;;;;;5014244;28;20423;-70
2023/05/05 01:55:21;;;;;;;6.85;6.35;;;15.90;68.20;;;;;;5023636;28;20462;-70
2023/05/05 01:57:50;;;;;;;7.00;6.40;;;15.90;68.10;;;;;;5016541;28;20437;-68
2023/05/05 02:00:19;;;;;;;7.00;6.40;;;15.80;68.10;;;;;;5015550;28;20602;-70
2023/05/05 02:02:48;;;;;;;9.68;9.07;;;15.80;68.80;;;;;;5003887;28;20421;-70
2023/05/05 02:05:20;;;;;;;5.72;5.32;;;15.80;69.00;;;;;;5012549;28;20492;-69
2023/05/05 02:07:49;;;;;;;6.15;5.65;;;15.80;69.10;;;;;;5007397;28;20431;-69
2023/05/05 02:10:16;;;;;;;5.05;4.65;;;15.70;70.20;;;;;;5021654;28;20462;-69
2023/05/05 02:12:44;;;;;;;5.57;5.18;;;15.70;69.60;;;;;;5016891;28;20439;-69
2023/05/05 02:15:13;;;;;;;5.50;5.00;;;15.70;70.40;;;;;;5004488;28;20547;-70
2023/05/05 02:17:43;;;;;;;6.50;5.35;;;15.70;71.00;;;;;;5005429;28;20876;-69
2023/05/05 02:20:11;;;;;;;5.80;5.30;;;15.60;68.60;;;;;;5016332;28;20431;-68
2023/05/05 02:22:39;;;;;;;6.03;5.53;;;15.60;70.30;;;;;;5022861;28;20439;-69
2023/05/05 02:25:07;;;;;;;6.03;5.53;;;15.50;69.80;;;;;;5022792;28;20447;-69
2023/05/05 02:27:35;;;;;;;6.75;6.25;;;15.50;69.90;;;;;;5027692;28;20442;-69
2023/05/05 02:30:08;;;;;;;6.80;6.20;;;15.50;70.00;;;;;;5020286;28;20443;-70
2023/05/05 02:32:37;;;;;;;6.78;6.28;;;15.50;70.40;;;;;;5009817;28;20528;-70
2023/05/05 02:35:10;;;;;;;7.20;6.50;;;15.50;70.00;;;;;;5021378;28;20421;-70
2023/05/05 02:37:41;;;;;;;6.80;6.20;;;15.50;70.30;;;;;;5027001;28;20438;-69
2023/05/05 02:40:10;;;;;;;7.18;6.57;;;15.40;72.60;;;;;;5027399;28;20852;-68
2023/05/05 02:42:40;;;;;;;6.57;6.07;;;15.40;72.80;;;;;;5027071;28;20441;-68
2023/05/05 02:45:11;;;;;;;6.53;6.03;;;15.40;72.20;;;;;;5027469;28;20474;-70
2023/05/05 02:47:38;;;;;;;6.88;6.25;;;15.40;72.50;;;;;;5021909;28;20922;-68
2023/05/05 02:50:07;;;;;;;6.50;6.00;;;15.30;73.50;;;;;;5012126;28;20431;-70
2023/05/05 02:52:34;;;;;;;6.85;6.25;;;15.30;73.70;;;;;;5014972;28;20444;-70
2023/05/05 02:55:04;;;;;;;6.53;6.03;;;15.30;74.30;;;;;;5026053;28;20419;-68
2023/05/05 02:57:37;;;;;;;6.80;6.30;;;15.30;74.80;;;;;;5021096;28;20432;-68
2023/05/05 03:00:10;;;;;;;7.28;6.60;;;15.20;75.10;;;;;;5016164;28;20430;-69
2023/05/05 03:02:45;;;;;;;7.25;6.68;;;15.20;74.50;;;;;;5021330;28;20446;-70
2023/05/05 03:05:18;;;;;;;6.10;5.50;;;15.10;77.10;;;;;;5012873;28;20434;-70
2023/05/05 03:07:54;;;;;;;6.32;5.72;;;15.10;78.30;;;;;;5023598;28;20834;-70
2023/05/05 03:10:28;;;;;;;6.15;5.55;;;15.10;78.50;;;;;;5020580;28;20429;-70
2023/05/05 03:12:58;;;;;;;6.57;6.07;;;15.10;79.60;;;;;;5013561;28;20459;-70
2023/05/05 03:15:32;;;;;;;6.00;5.53;;;15.10;80.60;;;;;;5007483;28;20458;-71
2023/05/05 03:18:00;;;;;;;6.18;5.57;;;15.10;79.10;;;;;;5023535;28;20948;-70
2023/05/05 03:20:27;;;;;;;6.45;5.95;;;15.10;79.40;;;;;;5026335;28;20439;-70
2023/05/05 03:22:54;;;;;;;6.53;5.93;;;15.10;79.50;;;;;;5026742;28;20422;-70
2023/05/05 03:25:22;;;;;;;6.18;5.68;;;15.10;80.20;;;;;;5018861;28;20521;-70
2023/05/05 03:27:49;;;;;;;6.15;5.65;;;15.00;80.00;;;;;;5021081;28;20751;-70
2023/05/05 03:30:19;;;;;;;6.60;6.00;;;15.00;80.50;;;;;;5015029;28;20740;-70
2023/05/05 03:32:45;;;;;;;6.00;5.50;;;15.10;80.70;;;;;;5013407;28;20444;-70
2023/05/05 03:35:12;;;;;;;6.63;6.03;;;15.00;81.20;;;;;;5023583;28;20446;-70
2023/05/05 03:37:39;;;;;;;6.80;6.20;;;15.00;81.60;;;;;;5021946;28;20817;-70
2023/05/05 03:40:07;;;;;;;6.95;6.25;;;15.00;82.30;;;;;;5026352;28;20434;-70
2023/05/05 03:42:35;;;;;;;6.78;6.18;;;15.00;82.30;;;;;;5008372;28;20429;-70
2023/05/05 03:45:01;;;;;;;6.80;6.20;;;14.90;82.80;;;;;;5022362;28;20431;-70
2023/05/05 03:47:28;;;;;;;7.47;6.40;;;14.90;83.40;;;;;;5020679;28;20433;-70
2023/05/05 03:49:55;;;;;;;6.72;6.20;;;14.90;84.00;;;;;;5021530;28;20435;-70
2023/05/05 03:52:21;;;;;;;6.80;6.30;;;14.80;84.20;;;;;;5020775;28;20479;-70
2023/05/05 03:54:48;;;;;;;7.15;6.45;;;14.80;84.80;;;;;;5026525;28;20914;-70
2023/05/05 03:57:15;;;;;;;7.70;6.60;;;14.70;83.60;;;;;;5014609;28;20428;-70
2023/05/05 03:59:43;;;;;;;7.15;6.32;;;14.60;84.60;;;;;;5006349;28;20991;-68
2023/05/05 04:02:10;;;;;;;7.20;6.50;;;14.60;85.90;;;;;;5017086;28;20435;-68
2023/05/05 04:04:37;;;;;;;9.18;6.30;;;14.70;86.00;;;;;;5026333;28;20426;-70
2023/05/05 04:07:03;;;;;;;7.05;6.50;;;14.60;85.70;;;;;;5020580;28;20439;-70
2023/05/05 04:09:30;;;;;;;6.97;6.38;;;14.60;86.80;;;;;;5013538;28;20416;-70
2023/05/05 04:11:57;;;;;;;7.40;6.60;;;14.60;87.80;;;;;;5012671;28;20926;-70
2023/05/05 04:14:23;;;;;;;7.40;6.50;;;14.60;88.40;;;;;;5023160;28;20423;-68
2023/05/05 04:16:51;;;;;;;7.30;6.57;;;14.60;88.20;;;;;;5020539;28;20423;-68
2023/05/05 04:19:18;;;;;;;7.05;6.43;;;14.60;88.00;;;;;;5016835;28;20641;-68
2023/05/05 04:21:45;;;;;;;9.13;7.40;;;14.60;87.90;;;;;;5018189;28;20547;-68
2023/05/05 04:24:12;;;;;;;8.40;7.55;;;14.60;88.70;;;;;;5018489;28;20433;-68
2023/05/05 04:26:38;;;;;;;8.23;6.72;;;14.50;89.20;;;;;;5006433;28;20448;-68
2023/05/05 04:29:05;;;;;;;7.10;6.40;;;14.50;88.40;;;;;;5024234;28;20427;-68
2023/05/05 04:31:32;;;;;;;7.30;6.60;;;14.50;88.90;;;;;;5013898;28;20648;-70
2023/05/05 04:34:00;;;;;;;7.60;7.00;;;14.50;89.20;;;;;;5021042;28;20442;-68
2023/05/05 04:36:27;;;;;;;7.22;6.63;;;14.60;90.00;;;;;;5021006;28;20923;-69
2023/05/05 04:38:53;;;;;;;8.13;7.32;;;14.60;90.00;;;;;;5011918;28;20499;-68
2023/05/05 04:41:20;;;;;;;9.13;7.95;;;14.70;90.50;;;;;;5016110;28;20440;-68
2023/05/05 04:43:47;;;;;;;8.20;7.40;;;14.80;90.40;;;;;;5024710;28;20445;-70
2023/05/05 04:46:14;;;;;;;8.30;7.60;;;14.90;90.20;;;;;;5015735;28;21075;-65
2023/05/05 04:48:40;;;;;;;8.70;7.80;;;15.00;90.10;;;;;;5022160;28;20431;-67
2023/05/05 04:51:08;;;;;;;8.45;7.63;;;15.00;89.90;;;;;;5020091;28;20435;-65
2023/05/05 04:53:35;;;;;;;8.93;8.00;;;15.10;89.80;;;;;;5023810;28;20770;-72
2023/05/05 04:56:02;;;;;;;7.60;6.90;;;15.20;89.90;;;;;;5025365;28;20510;-72
2023/05/05 04:58:29;;;;;;;8.02;7.07;;;15.30;90.30;;;;;;5011076;28;20945;-71
2023/05/05 05:00:55;;;;;;;7.90;7.20;;;15.30;90.10;;;;;;5020684;28;20466;-69
2023/05/05 05:03:22;;;;;;;8.20;7.50;;;15.40;89.70;;;;;;5020804;28;20921;-70
2023/05/05 05:05:49;;;;;;;7.82;7.13;;;15.40;90.00;;;;;;5018694;28;20743;-71
2023/05/05 05:08:17;;;;;;;7.85;7.25;;;15.40;90.30;;;;;;5020338;28;20867;-70
2023/05/05 05:10:44;;;;;;;8.40;7.60;;;15.50;90.10;;;;;;5023525;28;20435;-74
2023/05/05 05:13:11;;;;;;;8.50;7.80;;;15.40;90.40;;;;;;5015414;28;20435;-73
2023/05/05 05:15:38;;;;;;;9.13;8.23;;;15.50;90.70;;;;;;5015967;28;20431;-72
2023/05/05 05:18:05;;;;;;;8.60;7.80;;;15.50;90.70;;;;;;5019486;28;20909;-72
2023/05/05 05:20:32;;;;;;;8.80;8.00;;;15.50;90.90;;;;;;5021966;28;20890;-73
2023/05/05 05:23:00;;;;;;;10.50;9.60;;;15.50;90.80;;;;;;5015792;28;20777;-70
2023/05/05 05:25:29;;;;;;;9.55;8.60;;;15.50;90.50;;;;;;5021865;28;20537;-71
2023/05/05 05:27:56;;;;;;;9.73;8.65;;;15.50;90.80;;;;;;5023564;28;20438;-71
2023/05/05 05:30:22;;;;;;;10.27;9.25;;;15.60;91.00;;;;;;5019623;28;20973;-72
2023/05/05 05:32:49;;;;;;;9.00;8.20;;;15.60;91.20;;;;;;5020775;28;20442;-73
2023/05/05 05:35:16;;;;;;;9.23;8.20;;;15.60;91.50;;;;;;5018439;28;20435;-71
2023/05/05 05:37:43;;;;;;;9.35;8.50;;;15.70;91.80;;;;;;5015500;28;20892;-71
2023/05/05 05:40:10;;;;;;;9.55;8.68;;;15.70;91.90;;;;;;5020977;28;20441;-70
2023/05/05 05:42:38;;;;;;;11.38;8.75;;;15.80;91.80;;;;;;5016476;28;20440;-72
2023/05/05 05:45:06;;;;;;;9.80;8.80;;;15.80;91.90;;;;;;5025316;28;20818;-71
2023/05/05 05:47:33;;;;;;;9.10;8.30;;;15.90;91.90;;;;;;5017405;28;20679;-71
2023/05/05 05:50:00;;;;;;;10.48;9.57;;;15.90;91.90;;;;;;5023410;28;20438;-71
2023/05/05 05:52:27;;;;;;;9.18;8.38;;;16.00;91.90;;;;;;5017907;28;20431;-73
2023/05/05 05:54:53;;;;;;;9.27;8.48;;;16.00;92.00;;;;;;5017320;28;22467;-73
2023/05/05 05:57:21;;;;;;;9.63;8.73;;;16.10;91.90;;;;;;5017640;28;20459;-72
2023/05/05 05:59:49;;;;;;;10.73;8.73;;;16.10;92.00;;;;;;5018768;28;20651;-72
2023/05/05 06:02:16;;;;;;;9.85;9.05;;;16.20;92.10;;;;;;5020548;28;20435;-72
2023/05/05 06:04:45;;;;;;;9.68;8.77;;;16.20;92.10;;;;;;5016560;28;22376;-73
2023/05/05 06:07:12;;;;;;;9.20;8.40;;;16.20;92.20;;;;;;5015492;28;20893;-71
2023/05/05 06:09:38;;;;;;;11.43;8.98;;;16.30;92.20;;;;;;5017875;28;20439;-71
2023/05/05 06:12:06;;;;;;;10.75;9.68;;;16.30;92.20;;;;;;5023063;28;20435;-71
2023/05/05 06:14:32;;;;;;;9.63;8.77;;;16.30;92.30;;;;;;5019395;28;20443;-70
2023/05/05 06:17:00;;;;;;;10.30;9.07;;;16.40;92.30;;;;;;5019043;28;20439;-71
2023/05/05 06:19:27;;;;;;;9.93;9.07;;;16.40;92.30;;;;;;5022667;28;20467;-70
2023/05/05 06:21:54;;;;;;;11.60;9.40;;;16.40;92.40;;;;;;5013476;28;20546;-70
2023/05/05 06:24:21;;;;;;;12.05;9.68;;;16.50;92.40;;;;;;5013431;28;20453;-71
2023/05/05 06:26:47;;;;;;;9.93;9.02;;;16.50;92.40;;;;;;5018938;28;20441;-73
2023/05/05 06:29:14;;;;;;;10.63;9.63;;;16.60;92.50;;;;;;5019343;28;20446;-70
2023/05/05 06:31:41;;;;;;;10.60;9.50;;;16.60;92.50;;;;;;5019038;28;21167;-70
2023/05/05 06:34:09;;;;;;;10.38;9.43;;;16.70;92.30;;;;;;5020584;28;20430;-71
2023/05/05 06:36:36;;;;;;;11.48;10.27;;;16.80;92.20;;;;;;5013356;28;20736;-71
2023/05/05 06:39:03;;;;;;;10.90;10.00;;;16.90;92.20;;;;;;5005005;28;20415;-70
2023/05/05 06:41:30;;;;;;;10.15;9.32;;;16.90;91.90;;;;;;5018294;28;20439;-71
2023/05/05 06:43:56;;;;;;;11.43;10.33;;;16.90;91.90;;;;;;5012405;28;20916;-70
2023/05/05 06:46:23;;;;;;;11.32;10.15;;;17.00;91.80;;;;;;5021992;28;20474;-71
2023/05/05 06:48:50;;;;;;;12.75;10.85;;;17.10;91.80;;;;;;5017489;28;20427;-71
2023/05/05 06:51:18;;;;;;;11.48;10.38;;;17.10;91.60;;;;;;5015464;28;20543;-71
2023/05/05 06:53:45;;;;;;;11.23;10.25;;;17.20;91.40;;;;;;5010559;28;20436;-71
2023/05/05 06:56:11;;;;;;;11.88;10.77;;;17.30;91.30;;;;;;5018357;28;20443;-70
2023/05/05 06:58:38;;;;;;;11.30;10.20;;;17.40;91.00;;;;;;5018578;28;20741;-71
2023/05/05 07:01:06;;;;;;;11.07;9.95;;;17.50;90.80;;;;;;5013057;28;20469;-71
2023/05/05 07:03:33;;;;;;;11.65;10.45;;;17.60;90.50;;;;;;5022571;28;20453;-71
2023/05/05 07:05:59;;;;;;;10.63;9.80;;;17.90;90.20;;;;;;5023524;28;20435;-71
2023/05/05 07:08:27;;;;;;;11.48;10.48;;;18.00;88.80;;;;;;5024702;28;20437;-72
2023/05/05 07:10:54;;;;;;;11.13;10.00;;;18.20;87.10;;;;;;5020774;28;20803;-72
2023/05/05 07:13:21;;;;;;;11.80;10.70;;;18.30;86.70;;;;;;5018509;28;20449;-72
2023/05/05 07:15:48;;;;;;;10.77;9.80;;;18.40;85.90;;;;;;5023801;28;20431;-71
2023/05/05 07:18:15;;;;;;;11.57;10.48;;;18.40;85.20;;;;;;5018032;28;20446;-71
2023/05/05 07:20:42;;;;;;;11.20;10.20;;;18.40;84.30;;;;;;5021525;28;20453;-70
2023/05/05 07:23:10;;;;;;;10.30;9.38;;;18.40;84.90;;;;;;5016493;28;20442;-73
2023/05/05 07:25:38;;;;;;;10.55;9.60;;;18.40;84.10;;;;;;5013558;28;20428;-70
2023/05/05 07:28:05;;;;;;;9.73;8.93;;;18.40;83.30;;;;;;5025168;28;20426;-72
2023/05/05 07:30:32;;;;;;;9.60;8.70;;;18.50;80.60;;;;;;5025366;28;20430;-71
2023/05/05 07:32:58;;;;;;;9.52;8.73;;;18.60;80.00;;;;;;5021104;28;20447;-72
2023/05/05 07:35:26;;;;;;;9.80;9.00;;;18.70;80.20;;;;;;5027068;28;20503;-72
2023/05/05 07:37:53;;;;;;;9.45;8.65;;;18.80;80.20;;;;;;5024113;28;20878;-70
2023/05/05 07:40:20;;;;;;;10.70;9.70;;;18.80;79.20;;;;;;5016109;28;20546;-72
2023/05/05 07:42:48;;;;;;;9.80;9.00;;;18.90;80.40;;;;;;5020448;28;20783;-72
2023/05/05 07:45:14;;;;;;;9.15;8.07;;;19.00;80.70;;;;;;5021858;28;21019;-71
2023/05/05 07:47:41;;;;;;;8.85;7.95;;;19.10;79.90;;;;;;5019935;28;20454;-70
2023/05/05 07:50:08;;;;;;;8.48;7.68;;;19.30;79.10;;;;;;5026679;28;20427;-71
2023/05/05 07:52:35;;;;;;;8.18;7.38;;;19.50;74.40;;;;;;5020953;28;20895;-71
2023/05/05 07:55:02;;;;;;;8.93;8.07;;;19.50;74.90;;;;;;5021557;28;20435;-71
2023/05/05 07:57:28;;;;;;;7.75;7.05;;;19.50;74.10;;;;;;5019619;28;20646;-71
2023/05/05 07:59:56;;;;;;;8.60;7.80;;;19.60;73.30;;;;;;5024741;28;20415;-72
2023/05/05 08:02:23;;;;;;;9.20;8.38;;;19.70;73.30;;;;;;5021084;28;20446;-72
2023/05/05 08:04:50;;;;;;;8.50;7.70;;;19.80;72.80;;;;;;5012024;28;20424;-72
2023/05/05 08:07:17;;;;;;;7.88;7.00;;;20.00;71.80;;;;;;5005137;28;20425;-72
2023/05/05 08:09:43;;;;;;;10.95;6.53;;;20.20;68.60;;;;;;5020529;28;20427;-72
2023/05/05 08:12:11;;;;;;;6.63;5.47;;;20.40;68.50;;;;;;5021656;28;20463;-71
2023/05/05 08:14:40;;;;;;;6.03;5.20;;;20.60;65.20;;;;;;5014592;28;20495;-74
2023/05/05 08:17:08;;;;;;;7.55;4.70;;;20.80;62.80;;;;;;5014590;28;20450;-72
2023/05/05 08:19:34;;;;;;;6.07;5.00;;;20.90;61.00;;;;;;5021674;28;20457;-72
2023/05/05 08:22:01;;;;;;;7.22;6.63;;;21.10;60.30;;;;;;5015274;28;20891;-72
2023/05/05 08:24:28;;;;;;;7.07;6.47;;;21.20;60.10;;;;;;5012599;28;20443;-72
2023/05/05 08:26:55;;;;;;;5.22;4.70;;;21.20;60.20;;;;;;5023466;28;20431;-73
2023/05/05 08:29:22;;;;;;;4.30;3.90;;;21.20;55.30;;;;;;5022330;28;20440;-71
2023/05/05 08:31:48;;;;;;;4.43;3.50;;;21.10;55.00;;;;;;5015920;28;20443;-72
2023/05/05 08:34:17;;;;;;;5.90;5.40;;;21.20;52.70;;;;;;5017163;28;20521;-72
2023/05/05 08:36:43;;;;;;;5.90;5.40;;;21.20;55.00;;;;;;5025863;28;20442;-72
2023/05/05 08:39:10;;;;;;;6.88;6.28;;;21.20;56.50;;;;;;5013315;28;20469;-74
2023/05/05 08:41:37;;;;;;;6.85;6.35;;;21.50;57.00;;;;;;5013863;28;20448;-74
2023/05/05 08:46:38;;;;;;;7.15;6.55;;;22.10;55.50;;;;;;5101120;28;20425;-77
2023/05/05 08:49:08;;;;;;;7.53;6.82;;;22.30;55.50;;;;;;5112620;28;20431;-78
2023/05/05 08:51:43;;;;;;;7.53;6.93;;;22.40;54.90;;;;;;5108268;28;20445;-77
2023/05/05 08:54:14;;;;;;;8.10;7.40;;;22.50;55.20;;;;;;5078808;28;20421;-78
2023/05/05 08:56:42;;;;;;;7.43;6.82;;;22.60;52.90;;;;;;5092337;28;20778;-76
2023/05/05 08:59:10;;;;;;;7.80;7.20;;;22.60;53.70;;;;;;5091310;28;20420;-76
2023/05/05 09:01:37;;;;;;;7.78;7.07;;;22.60;53.30;;;;;;5089348;28;20558;-78
2023/05/05 09:04:06;;;;;;;7.37;6.20;;;22.70;53.90;;;;;;5096388;28;20489;-76
2023/05/05 09:06:36;;;;;;;8.00;7.30;;;22.90;53.00;;;;;;5107952;28;20412;-76
2023/05/05 09:09:03;;;;;;;7.97;7.17;;;23.10;50.90;;;;;;5113496;28;20437;-76
2023/05/05 09:11:29;;;;;;;8.52;7.82;;;23.10;50.20;;;;;;5112789;28;20406;-76
2023/05/05 09:13:56;;;;;;;7.90;7.30;;;23.30;49.40;;;;;;5110653;28;20500;-76
2023/05/05 09:16:23;;;;;;;7.55;6.85;;;23.30;49.50;;;;;;5091364;28;20520;-79
2023/05/05 09:18:50;;;;;;;6.85;6.30;;;23.40;51.20;;;;;;5088821;28;20480;-76
2023/05/05 09:21:21;;;;;;;7.00;6.40;;;23.60;49.90;;;;;;5095594;28;20438;-74
2023/05/05 09:24:09;;;;;;;7.65;6.95;;;23.80;48.40;;;;;;5090063;28;20429;-76
2023/05/05 09:26:37;;;;;;;8.75;7.95;;;24.10;47.00;;;;;;5083392;28;20883;-77
2023/05/05 09:29:04;;;;;;;8.10;7.40;;;24.10;45.70;;;;;;5088506;28;20468;-77
2023/05/05 09:31:32;;;;;;;7.90;7.30;;;23.90;47.10;;;;;;5088518;28;20436;-79
2023/05/05 09:34:00;;;;;;;8.43;7.73;;;23.90;47.40;;;;;;5088031;28;20429;-77
2023/05/05 09:36:46;;;;;;;10.20;9.30;;;24.20;46.70;;;;;;5088344;28;20433;-78
2023/05/05 09:39:16;;;;;;;10.90;9.80;;;24.40;46.50;;;;;;5085325;28;20467;-75
2023/05/05 09:41:44;;;;;;;10.20;9.30;;;24.50;47.60;;;;;;5085750;28;20426;-75
2023/05/05 09:44:14;;;;;;;9.27;8.45;;;24.80;47.10;;;;;;5087156;28;20429;-77
2023/05/05 09:46:50;;;;;;;9.48;8.77;;;24.90;47.10;;;;;;5089161;28;20942;-76
2023/05/05 09:49:18;;;;;;;10.20;9.43;;;24.70;47.10;;;;;;5090136;28;20509;-75
2023/05/05 09:51:45;;;;;;;9.98;9.18;;;24.30;47.30;;;;;;5088612;28;20414;-75
2023/05/05 09:54:24;;;;;;;9.75;8.95;;;23.90;48.60;;;;;;5075752;28;20416;-75
2023/05/05 09:56:51;;;;;;;10.50;9.60;;;23.60;50.00;;;;;;5082001;28;20444;-79
2023/05/05 09:59:18;;;;;;;10.10;9.30;;;23.30;50.70;;;;;;5090319;28;20432;-75
2023/05/05 10:01:45;;;;;;;10.75;9.95;;;23.30;51.60;;;;;;5085429;28;20430;-76
2023/05/05 10:04:23;;;;;;;10.65;9.75;;;23.30;51.10;;;;;;5088093;28;20425;-76
2023/05/05 10:06:50;;;;;;;10.25;9.45;;;23.20;51.30;;;;;;5089353;28;20467;-73
2023/05/05 10:09:17;;;;;;;9.93;9.15;;;23.20;52.00;;;;;;5088199;28;20429;-75
2023/05/05 10:11:46;;;;;;;8.10;7.50;;;23.50;52.30;;;;;;5090083;28;20430;-78
2023/05/05 10:14:14;;;;;;;7.75;7.15;;;23.90;51.70;;;;;;5078115;28;22771;-77
2023/05/05 10:16:48;;;;;;;8.23;7.43;;;24.40;50.00;;;;;;5089004;28;20486;-75
2023/05/05 10:19:15;;;;;;;6.80;6.30;;;24.90;47.90;;;;;;5084020;28;20441;-76
2023/05/05 10:21:49;;;;;;;6.78;6.18;;;25.30;46.30;;;;;;5088386;28;20430;-78
2023/05/05 10:24:24;;;;;;;6.28;5.68;;;25.40;44.50;;;;;;5088577;28;20414;-76
2023/05/05 10:26:53;;;;;;;7.10;6.60;;;25.50;43.70;;;;;;5087015;28;20428;-76
2023/05/05 10:29:30;;;;;;;7.30;6.60;;;25.60;43.40;;;;;;5086724;28;20437;-77
2023/05/05 10:32:03;;;;;;;6.00;5.50;;;25.60;43.20;;;;;;5087865;28;20797;-77
2023/05/05 10:34:38;;;;;;;7.57;7.00;;;25.70;43.40;;;;;;5086514;28;20479;-76
2023/05/05 10:37:06;;;;;;;6.68;6.18;;;25.70;43.50;;;;;;5087712;28;20410;-76
2023/05/05 10:39:35;;;;;;;6.43;5.93;;;26.00;43.90;;;;;;5097202;28;20428;-77
2023/05/05 10:42:04;;;;;;;4.63;4.23;;;26.20;42.80;;;;;;5094952;28;20532;-77
2023/05/05 10:44:32;;;;;;;3.70;3.40;;;26.40;40.30;;;;;;5090333;28;20517;-77
2023/05/05 10:47:00;;;;;;;3.40;3.10;;;26.50;40.10;;;;;;5097714;28;20444;-77
2023/05/05 10:49:33;;;;;;;4.00;3.70;;;26.60;39.20;;;;;;5091651;28;20603;-75
2023/05/05 10:52:09;;;;;;;4.50;4.20;;;26.60;38.90;;;;;;5098769;28;20422;-77
2023/05/05 10:54:42;;;;;;;4.87;4.57;;;26.40;39.90;;;;;;5096507;28;20440;-75
2023/05/05 10:57:11;;;;;;;5.47;4.97;;;26.30;40.90;;;;;;5099050;28;20858;-77
2023/05/05 10:59:42;;;;;;;5.33;4.93;;;26.30;40.20;;;;;;5099980;28;20425;-77
2023/05/05 11:02:19;;;;;;;5.90;5.40;;;25.90;41.90;;;;;;5093737;28;20413;-76
2023/05/05 11:05:08;;;;;;;5.43;5.03;;;25.60;41.80;;;;;;5091062;28;20864;-77
2023/05/05 11:07:36;;;;;;;4.25;3.40;;;25.20;40.70;;;;;;5091829;28;20475;-78
2023/05/05 11:10:04;;;;;;;3.70;3.40;;;24.80;41.30;;;;;;5093668;28;20430;-76
2023/05/05 11:12:33;;;;;;;3.45;3.10;;;24.40;40.00;;;;;;5091666;28;20479;-78
2023/05/05 11:15:40;;;;;;;4.05;3.40;;;23.80;42.50;;;;;;5093539;28;20599;-78
2023/05/05 11:18:07;;;;;;;5.35;4.93;;;23.50;44.00;;;;;;5093767;28;20426;-77
2023/05/05 11:21:16;;;;;;;6.78;6.28;;;23.10;46.90;;;;;;5093668;28;20421;-79
2023/05/05 11:23:48;;;;;;;8.25;7.45;;;22.80;50.20;;;;;;5062760;28;20433;-77
2023/05/05 11:26:15;;;;;;;10.90;9.80;;;22.50;58.10;;;;;;5096965;28;20424;-78
2023/05/05 11:29:01;;;;;;;6.10;5.50;;;22.10;72.20;;;;;;5089900;28;20621;-78
2023/05/05 11:31:29;;;;;;;5.03;4.60;;;20.90;76.60;;;;;;5092574;28;20416;-77
2023/05/05 11:34:19;;;;;;;8.30;4.45;;;19.30;82.50;;;;;;5092159;28;20451;-77
2023/05/05 11:36:46;;;;;;;6.85;3.75;;;18.00;94.70;;;;;;5087634;28;20436;-76
2023/05/05 11:39:23;;;;;;;4.72;4.18;;;16.30;99.90;;;;;;5090782;28;20429;-77
2023/05/05 11:42:12;;;;;;;7.88;7.10;;;15.40;99.90;;;;;;5089450;28;20444;-77
2023/05/05 11:44:41;;;;;;;10.30;7.20;;;15.00;99.90;;;;;;5083727;28;20427;-75
2023/05/05 11:47:28;;;;;;;9.90;8.30;;;14.70;99.90;;;;;;5097735;28;20516;-75
2023/05/05 11:49:55;;;;;;;9.02;8.18;;;14.60;99.90;;;;;;5092726;28;20428;-76
2023/05/05 11:52:25;;;;;;;11.33;10.23;;;14.60;99.90;;;;;;5093325;28;20496;-78
2023/05/05 11:54:52;;;;;;;8.18;7.38;;;14.70;99.90;;;;;;5091036;28;20430;-75
2023/05/05 11:57:20;;;;;;;8.27;7.20;;;14.70;99.90;;;;;;5100163;28;20390;-77
2023/05/05 11:59:54;;;;;;;8.00;7.40;;;14.50;99.90;;;;;;5117476;28;20426;-74
2023/05/05 12:02:21;;;;;;;12.70;11.40;;;14.50;99.90;;;;;;5103371;28;20463;-77
2023/05/05 12:04:49;;;;;;;14.77;13.18;;;14.60;99.90;;;;;;5113769;28;20493;-77
2023/05/05 12:07:17;;;;;;;12.60;11.50;;;15.00;99.90;;;;;;5106317;28;20416;-76
2023/05/05 12:09:45;;;;;;;10.02;9.10;;;15.40;99.90;;;;;;5106179;28;20418;-75
2023/05/05 12:12:12;;;;;;;9.65;8.65;;;15.70;99.90;;;;;;5095385;28;20419;-77
2023/05/05 12:14:47;;;;;;;7.90;7.20;;;16.10;99.90;;;;;;5098143;28;20433;-77
2023/05/05 12:17:15;;;;;;;6.00;5.40;;;16.40;99.90;;;;;;5089898;28;20417;-76
2023/05/05 12:19:46;;;;;;;6.17;4.77;;;16.40;99.90;;;;;;5108289;28;20417;-76
2023/05/05 12:22:21;;;;;;;5.20;4.80;;;16.60;99.90;;;;;;5099401;28;20441;-77
2023/05/05 12:24:59;;;;;;;5.40;4.90;;;16.90;99.90;;;;;;5089908;28;20489;-77
2023/05/05 12:27:27;;;;;;;5.80;4.50;;;17.10;99.90;;;;;;5082813;28;20409;-77
2023/05/05 12:29:55;;;;;;;5.32;4.60;;;17.30;99.90;;;;;;5095851;28;20427;-76
2023/05/05 12:32:25;;;;;;;6.25;4.43;;;17.40;99.90;;;;;;5098867;28;20416;-77
2023/05/05 12:34:56;;;;;;;4.63;3.50;;;17.50;99.90;;;;;;5104377;28;21092;-76
2023/05/05 12:37:24;;;;;;;4.57;4.18;;;17.50;99.90;;;;;;5089975;28;20417;-78
2023/05/05 12:39:53;;;;;;;4.05;3.70;;;17.60;99.90;;;;;;5101360;28;20504;-77
2023/05/05 12:42:20;;;;;;;5.28;4.28;;;17.60;99.90;;;;;;5094026;28;20434;-75
2023/05/05 12:44:47;;;;;;;5.03;4.30;;;17.60;99.90;;;;;;5089918;28;20878;-76
2023/05/05 12:47:15;;;;;;;4.63;4.10;;;17.80;99.90;;;;;;5092742;28;20809;-75
2023/05/05 12:49:47;;;;;;;4.72;4.30;;;18.00;99.90;;;;;;5090375;28;20444;-79
2023/05/05 12:52:15;;;;;;;4.63;4.22;;;18.20;99.90;;;;;;5089826;28;21037;-75
2023/05/05 12:54:55;;;;;;;4.90;3.60;;;18.40;99.90;;;;;;5106027;28;20406;-76
2023/05/05 12:57:22;;;;;;;4.47;4.07;;;18.50;99.90;;;;;;5098081;28;20429;-75